x

South Moresby (46147) Wave Buoy

2:00am - Fri 19th Sep 2014 All times are PDT. -7 hours from GMT.

  • Sig Wave height 10.8ft
  • Peak Period 10s
  • Wind
    20mph, 25mph gusts
  • Sea Temp 62°f
  • Air Temp 62°f
  • Sea Pressure 1009.2mb
  • South Moresby
  • South Moresby

More Historic Weather Station data

Upgrade to MSW Pro to gain access to the past 30 days of data for over 8000 Wavebouys and Weather Stations around the globe.

Join Pro

Comparision Forecast

View Surf forecast
   
Fri 09/19 2:00am 11ft 10s 20 25 mph 1009.2mb 62f 62f
1:00am 9ft 10s 18 22 mph 1008.2mb 62f 62f
12:00am 9ft 10s 18 22 mph 1007.4mb 62f 62f
Thu 09/18 11:00pm 9ft 10s 16 18 mph 1006.7mb 62f 62f
10:00pm 8ft 10s 16 18 mph 1005.8mb 62f 62f
9:00pm 8.5ft 8s 20 25 mph 1004.6mb 62f 62f
8:00pm 9ft 9s 20 25 mph 1003.2mb 62f 62f
7:00pm 9ft 8s 25 29 mph 1002.1mb 62f 63f
6:00pm 9.5ft 8s 18 22 mph 1001.2mb 62f 63f
5:00pm 9ft 8s 22 27 mph 1000.5mb 62f 63f
4:00pm 9ft 8s 20 27 mph 1000.2mb 62f 63f
3:00pm 8ft 6s 22 31 mph 999.7mb 62f 63f
1:00pm 7.5ft 6s 27 31 mph 999.1mb 62f 62f
12:00pm 7ft 5s 27 34 mph 999.2mb 62f 61f
11:00am 6ft 17s 27 31 mph 999.3mb 62f 61f
10:00am 5.5ft 17s 25 29 mph 999.9mb 62f 60f
9:00am 5.5ft 17s 22 27 mph 1000.5mb 62f 61f
8:00am 5ft 9s 20 25 mph 1000.8mb 62f 62f
7:00am 5ft 18s 20 22 mph 1001.2mb 62f 61f
6:00am 4.5ft 18s 18 20 mph 1001.6mb 62f 61f
5:00am 4.5ft 18s 11 13 mph 1002mb 62f 60f
4:00am 5ft 18s 11 13 mph 1002.8mb 62f 60f
3:00am 5ft 18s 9 13 mph 1003.2mb 62f 60f
2:00am 5ft 18s 11 13 mph 1003.5mb 62f 60f
1:00am 5ft 18s 11 13 mph 1003.8mb 62f 60f
12:00am 5ft 10s 9 13 mph 1003.7mb 62f 58f
Wed 09/17 11:00pm 5.5ft 18s 9 11 mph 1003.7mb 62f 58f
10:00pm 5.5ft 10s 9 11 mph 1003.9mb 62f 58f
9:00pm 6ft 11s 9 11 mph 1004.4mb 62f 58f
8:00pm 5ft 18s 9 11 mph 1004.7mb 62f 58f
7:00pm 5ft 18s 9 11 mph 1005.4mb 62f 58f
6:00pm 5.5ft 11s 13 16 mph 1005.5mb 62f 58f
5:00pm 5ft 10s 11 13 mph 1006mb 62f 57f
4:00pm 6ft 20s 13 18 mph 1006.3mb 62f 57f
3:00pm 6ft 10s 11 13 mph 1007mb 62f 57f
2:00pm 5.5ft 20s 9 11 mph 1007.4mb 62f 58f
1:00pm 6ft 10s 7 9 mph 1008mb 62f 58f
12:00pm 6ft 12s 4 7 mph 1008.1mb 62f 57f
11:00am 6ft 11s 9 13 mph 1007.6mb 62f 57f
10:00am 6ft 12s 9 13 mph 1007.7mb 62f 57f
9:00am 7ft 12s 7 9 mph 1008.1mb 62f 56f
8:00am 6.5ft 12s 9 11 mph 1008.2mb 62f 56f
7:00am 6.5ft 12s 7 9 mph 1008.4mb 62f 56f
6:00am 6ft 12s 11 16 mph 1008.4mb 62f 56f
5:00am 6ft 12s 13 16 mph 1008.6mb 62f 56f
4:00am 7ft 12s 13 16 mph 1009.1mb 62f 56f
3:00am 7ft 13s 9 11 mph 1009.2mb 61f 57f
2:00am 7ft 12s 7 11 mph 1009.5mb 59f 58f
1:00am 8ft 14s 4 7 mph 1009.9mb 59f 58f
12:00am 8.5ft 12s 7 9 mph 1010mb 59f 58f
Tue 09/16 11:00pm 8ft 14s 2 4 mph 1010.1mb 60f 60f
10:00pm 9ft 12s  -  2 mph 1010.4mb 61f 60f
9:00pm 9ft 14s 2 4 mph 1010.3mb 61f 60f
8:00pm 7ft 14s 2 4 mph 1010.4mb 61f 60f
7:00pm 6.5ft 12s  -  4 mph 1010.9mb 62f 60f
6:00pm 6.5ft 12s 2 4 mph 1011mb 63f 60f
5:00pm 6.5ft 12s  -  2 mph 1011mb 63f 60f
4:00pm 6ft 14s 2 4 mph 1011.5mb 63f 59f
3:00pm 6ft 12s 7 9 mph 1011.6mb 62f 59f
2:00pm 7ft 12s 2 4 mph 1011.9mb 62f 60f
1:00pm 7ft 13s 2 4 mph 1011.9mb 61f 60f
12:00pm 6ft 11s 4 7 mph 1012mb 62f 60f
11:00am 6.5ft 14s 2 4 mph 1012.2mb 60f 59f
10:00am 7ft 14s 2 4 mph 1012.1mb 58f 59f
9:00am 7ft 14s 7
mph
1011.7mb 58f 58f
8:00am 7.5ft 14s 7 9 mph 1011.5mb 57f 58f
7:00am 8ft 14s 4 7 mph 1011.5mb 59f 58f
6:00am 6.5ft 14s 7 9 mph 1011.4mb 59f 59f
5:00am 6ft 12s 4 7 mph 1011.7mb 57f 58f
4:00am 6ft 14s 7 11 mph 1011.9mb 60f 59f
3:00am 6ft 12s 9 11 mph 1011.9mb 60f 59f
2:00am 6ft 13s 9 11 mph 1011.9mb 60f 59f
1:00am 6ft 14s 11 13 mph 1011.9mb 61f 60f
12:00am 6ft 13s 11 13 mph 1012.1mb 60f 59f
Mon 09/15 11:00pm 6ft 10s 9 11 mph 1012.1mb 59f 59f
10:00pm 5.5ft 11s 11 13 mph 1011.8mb 59f 59f
9:00pm 5ft 14s 11 13 mph 1011.8mb 59f 59f
8:00pm 5.5ft 14s 13 16 mph 1011.7mb 59f 58f
7:00pm 5ft 10s 13 16 mph 1011.8mb 59f 58f
6:00pm 5ft 10s 9 13 mph 1012.3mb 62f 59f
5:00pm 5ft 10s 9 13 mph 1012.5mb 63f 59f
4:00pm 4.5ft 9s 9 11 mph 1012.8mb 63f 60f
3:00pm 5ft 11s 4 7 mph 1013.2mb 60f 59f
2:00pm 4.5ft 10s 4 7 mph 1013.5mb 60f 58f
1:00pm 4ft 10s 4
mph
1013.6mb 60f 58f
12:00pm 4.5ft 8s 4 7 mph 1013.7mb 60f 57f
11:00am 4.5ft 8s 7 9 mph 1013.6mb 58f 56f